Belize City, Belize

12:39 PM CST on October 25, 2014 (GMT -0600)
Philip S W Goldson International | Change Station
CLOSE
Current Station
Airport
Location: Belize,
Elevation: 16 ft
Nearby Weather Stations

Elev 16 ft 17.54 °N, 88.31 °W | Updated 39 minutes ago

Scattered Clouds
Scattered Clouds
82 °F
Feels Like 88 °F
N
9
Wind Variable Wind from NNW

Today
High -- | Low -- °F
--% Chance of Precip.
Yesterday
High -- | Low -- °F
Precip. -- in
5:48 AM 5:24 PM
Waxing Crescent, 4% visible
Pressure 29.98 in
Visibility 6.2 miles
Clouds Scattered Clouds 2100 ft
Heat Index 88 °F
Dew Point 73 °F
Humidity 74%
Rainfall 0.00 in
Snow Depth Not available.
UV 11 out of 12
Pollen Not available.
Air Quality Not available.
Flu Activity Not available.
METAR MZBZ 251800Z 33008KT 9999 SCT021 28/23 Q1015/A2998 NOSIG

More Conditions Fewer Conditions

Pressure 29.98 in
Visibility 6.2 miles
Clouds Scattered Clouds 2100 ft
Heat Index 88 °F
Dew Point 73 °F
Humidity 74%
Rainfall 0.00 in
Snow Depth Not available.
UV 11 out of 12
Pollen Not available.
Air Quality Not available.
Flu Activity Not available.
METAR MZBZ 251800Z 33008KT 9999 SCT021 28/23 Q1015/A2998 NOSIG

More Conditions Fewer Conditions

10-Day Weather Forecast

Almanac

Astronomy

Oct. 25, 2014 Rise Set
Actual Time 5:48 AM CST 5:24 PM CST
Civil Twilight 5:26 AM CST 5:46 PM CST
Nautical Twilight 5:01 AM CST 6:12 PM CST
Astronomical Twilight 4:35 AM CST 6:37 PM CST
Moon 7:17 AM CST 6:59 PM CST
Length of Visible Light 12h 20m
Length of Day
11h 35m
Tomorrow will be 0m 53s shorter.
Waxing Crescent, 4% of the Moon is Illuminated
Today
Waxing Crescent
Oct 30
First Quarter
Nov 6
Full
Nov 14
Last Quarter
Nov 22
New

Today's Extremes

Country Highs Country Lows

Community

WunderPhotos

Upload Photos

1,764,954 photos uploaded!

Nearby

Snow Depth

Not available.

Earthquake Activity

City Distance Mag. Time & Date
No recent earthquake activity has been reported nearby.
Minimum magnitude displayed is 2.5.

Coastal Water Temperatures

Place Temperature
No Stations Reporting

Nearby Weather Stations